sensor_id;sensor_type;location;lat;lon;timestamp;P1;durP1;ratioP1;P2;durP2;ratioP2
36709;SDS011;22694;51.040;3.684;2023-01-04T00:01:38;2.55;;;1.20;;
36709;SDS011;22694;51.040;3.684;2023-01-04T00:04:04;2.10;;;1.10;;
36709;SDS011;22694;51.040;3.684;2023-01-04T00:06:30;3.38;;;1.10;;
36709;SDS011;22694;51.040;3.684;2023-01-04T00:08:55;1.67;;;0.90;;
36709;SDS011;22694;51.040;3.684;2023-01-04T00:11:21;4.78;;;1.50;;
36709;SDS011;22694;51.040;3.684;2023-01-04T00:13:48;4.47;;;1.25;;
36709;SDS011;22694;51.040;3.684;2023-01-04T00:16:17;1.17;;;0.95;;
36709;SDS011;22694;51.040;3.684;2023-01-04T00:18:45;1.95;;;0.88;;
36709;SDS011;22694;51.040;3.684;2023-01-04T00:21:15;1.77;;;0.93;;
36709;SDS011;22694;51.040;3.684;2023-01-04T00:23:44;1.08;;;0.85;;
36709;SDS011;22694;51.040;3.684;2023-01-04T00:26:16;2.05;;;0.95;;
36709;SDS011;22694;51.040;3.684;2023-01-04T00:28:53;2.67;;;1.02;;
36709;SDS011;22694;51.040;3.684;2023-01-04T00:31:20;3.03;;;1.00;;
36709;SDS011;22694;51.040;3.684;2023-01-04T00:33:47;0.82;;;0.73;;
36709;SDS011;22694;51.040;3.684;2023-01-04T00:36:13;1.17;;;0.80;;
36709;SDS011;22694;51.040;3.684;2023-01-04T00:38:39;1.52;;;0.90;;
36709;SDS011;22694;51.040;3.684;2023-01-04T00:41:06;0.95;;;0.80;;
36709;SDS011;22694;51.040;3.684;2023-01-04T00:43:32;0.90;;;0.70;;
36709;SDS011;22694;51.040;3.684;2023-01-04T00:45:58;1.52;;;0.82;;
36709;SDS011;22694;51.040;3.684;2023-01-04T00:48:28;1.80;;;0.80;;
36709;SDS011;22694;51.040;3.684;2023-01-04T00:50:53;1.15;;;0.70;;
36709;SDS011;22694;51.040;3.684;2023-01-04T00:53:19;1.35;;;0.90;;
36709;SDS011;22694;51.040;3.684;2023-01-04T00:55:45;1.80;;;1.00;;
36709;SDS011;22694;51.040;3.684;2023-01-04T00:58:11;1.20;;;0.63;;
36709;SDS011;22694;51.040;3.684;2023-01-04T01:00:37;2.05;;;0.70;;
36709;SDS011;22694;51.040;3.684;2023-01-04T01:03:03;1.85;;;0.90;;
36709;SDS011;22694;51.040;3.684;2023-01-04T01:05:31;0.85;;;0.70;;
36709;SDS011;22694;51.040;3.684;2023-01-04T01:07:58;1.95;;;1.05;;
36709;SDS011;22694;51.040;3.684;2023-01-04T01:10:43;1.00;;;0.60;;
36709;SDS011;22694;51.040;3.684;2023-01-04T01:13:09;0.93;;;0.80;;
36709;SDS011;22694;51.040;3.684;2023-01-04T01:15:34;0.95;;;0.50;;
36709;SDS011;22694;51.040;3.684;2023-01-04T01:18:00;1.00;;;0.70;;
36709;SDS011;22694;51.040;3.684;2023-01-04T01:20:26;1.67;;;0.60;;
36709;SDS011;22694;51.040;3.684;2023-01-04T01:22:51;1.05;;;0.95;;
36709;SDS011;22694;51.040;3.684;2023-01-04T01:25:17;0.85;;;0.80;;
36709;SDS011;22694;51.040;3.684;2023-01-04T01:27:42;2.58;;;0.95;;
36709;SDS011;22694;51.040;3.684;2023-01-04T01:30:08;1.08;;;0.65;;
36709;SDS011;22694;51.040;3.684;2023-01-04T01:32:34;1.42;;;0.70;;
36709;SDS011;22694;51.040;3.684;2023-01-04T01:35:00;0.75;;;0.50;;
36709;SDS011;22694;51.040;3.684;2023-01-04T01:37:25;1.23;;;0.70;;
36709;SDS011;22694;51.040;3.684;2023-01-04T01:39:51;2.22;;;0.65;;
36709;SDS011;22694;51.040;3.684;2023-01-04T01:42:17;0.73;;;0.50;;
36709;SDS011;22694;51.040;3.684;2023-01-04T01:47:42;1.33;;;0.70;;
36709;SDS011;22694;51.040;3.684;2023-01-04T01:50:23;0.93;;;0.60;;
36709;SDS011;22694;51.040;3.684;2023-01-04T01:52:53;0.65;;;0.50;;
36709;SDS011;22694;51.040;3.684;2023-01-04T01:55:22;1.83;;;0.85;;
36709;SDS011;22694;51.040;3.684;2023-01-04T01:57:48;0.82;;;0.40;;
36709;SDS011;22694;51.040;3.684;2023-01-04T02:00:16;1.17;;;0.80;;
36709;SDS011;22694;51.040;3.684;2023-01-04T02:02:44;0.88;;;0.73;;
36709;SDS011;22694;51.040;3.684;2023-01-04T02:05:21;0.73;;;0.60;;
36709;SDS011;22694;51.040;3.684;2023-01-04T02:07:48;0.85;;;0.50;;
36709;SDS011;22694;51.040;3.684;2023-01-04T02:10:15;1.27;;;0.70;;
36709;SDS011;22694;51.040;3.684;2023-01-04T02:12:41;1.10;;;0.60;;
36709;SDS011;22694;51.040;3.684;2023-01-04T02:15:10;0.75;;;0.50;;
36709;SDS011;22694;51.040;3.684;2023-01-04T02:17:41;1.15;;;0.60;;
36709;SDS011;22694;51.040;3.684;2023-01-04T02:25:36;0.77;;;0.60;;
36709;SDS011;22694;51.040;3.684;2023-01-04T02:39:01;0.52;;;0.45;;
36709;SDS011;22694;51.040;3.684;2023-01-04T02:46:53;1.67;;;0.60;;
36709;SDS011;22694;51.040;3.684;2023-01-04T02:50:07;0.38;;;0.38;;
36709;SDS011;22694;51.040;3.684;2023-01-04T02:52:59;0.80;;;0.32;;
36709;SDS011;22694;51.040;3.684;2023-01-04T03:09:37;1.20;;;0.55;;
36709;SDS011;22694;51.040;3.684;2023-01-04T03:12:10;0.63;;;0.40;;
36709;SDS011;22694;51.040;3.684;2023-01-04T03:15:00;0.45;;;0.30;;
36709;SDS011;22694;51.040;3.684;2023-01-04T03:19:57;0.65;;;0.55;;
36709;SDS011;22694;51.040;3.684;2023-01-04T03:25:14;0.75;;;0.30;;
36709;SDS011;22694;51.040;3.684;2023-01-04T03:28:00;1.52;;;0.50;;
36709;SDS011;22694;51.040;3.684;2023-01-04T03:30:47;0.63;;;0.40;;
36709;SDS011;22694;51.040;3.684;2023-01-04T03:33:37;0.95;;;0.50;;
36709;SDS011;22694;51.040;3.684;2023-01-04T03:39:07;1.05;;;0.50;;
36709;SDS011;22694;51.040;3.684;2023-01-04T03:45:28;1.23;;;0.60;;
36709;SDS011;22694;51.040;3.684;2023-01-04T03:48:40;0.95;;;0.52;;
36709;SDS011;22694;51.040;3.684;2023-01-04T03:51:22;0.68;;;0.38;;
36709;SDS011;22694;51.040;3.684;2023-01-04T03:53:56;1.67;;;0.50;;
36709;SDS011;22694;51.040;3.684;2023-01-04T03:56:36;0.93;;;0.40;;
36709;SDS011;22694;51.040;3.684;2023-01-04T03:59:08;0.55;;;0.40;;
36709;SDS011;22694;51.040;3.684;2023-01-04T04:01:35;0.68;;;0.50;;
36709;SDS011;22694;51.040;3.684;2023-01-04T04:04:01;0.50;;;0.50;;
36709;SDS011;22694;51.040;3.684;2023-01-04T04:06:45;0.50;;;0.50;;
36709;SDS011;22694;51.040;3.684;2023-01-04T04:09:29;0.70;;;0.30;;
36709;SDS011;22694;51.040;3.684;2023-01-04T04:11:56;0.75;;;0.30;;
36709;SDS011;22694;51.040;3.684;2023-01-04T04:14:22;0.57;;;0.40;;
36709;SDS011;22694;51.040;3.684;2023-01-04T04:16:48;0.57;;;0.40;;
36709;SDS011;22694;51.040;3.684;2023-01-04T04:19:14;0.93;;;0.43;;
36709;SDS011;22694;51.040;3.684;2023-01-04T04:21:39;2.42;;;0.60;;
36709;SDS011;22694;51.040;3.684;2023-01-04T04:24:05;0.75;;;0.32;;
36709;SDS011;22694;51.040;3.684;2023-01-04T04:26:31;1.73;;;0.43;;
36709;SDS011;22694;51.040;3.684;2023-01-04T04:28:57;1.38;;;0.40;;
36709;SDS011;22694;51.040;3.684;2023-01-04T04:31:22;0.90;;;0.47;;
36709;SDS011;22694;51.040;3.684;2023-01-04T04:33:48;1.70;;;0.25;;
36709;SDS011;22694;51.040;3.684;2023-01-04T04:36:14;2.60;;;0.50;;
36709;SDS011;22694;51.040;3.684;2023-01-04T04:38:39;0.95;;;0.47;;
36709;SDS011;22694;51.040;3.684;2023-01-04T04:41:06;0.90;;;0.40;;
36709;SDS011;22694;51.040;3.684;2023-01-04T04:43:51;0.73;;;0.43;;
36709;SDS011;22694;51.040;3.684;2023-01-04T04:46:17;2.25;;;0.50;;
36709;SDS011;22694;51.040;3.684;2023-01-04T04:48:43;1.08;;;0.30;;
36709;SDS011;22694;51.040;3.684;2023-01-04T04:51:09;0.75;;;0.45;;
36709;SDS011;22694;51.040;3.684;2023-01-04T04:53:34;0.82;;;0.30;;
36709;SDS011;22694;51.040;3.684;2023-01-04T04:56:00;0.77;;;0.38;;
36709;SDS011;22694;51.040;3.684;2023-01-04T04:58:25;1.38;;;0.20;;
36709;SDS011;22694;51.040;3.684;2023-01-04T05:00:51;1.55;;;0.45;;
36709;SDS011;22694;51.040;3.684;2023-01-04T05:03:17;1.08;;;0.47;;
36709;SDS011;22694;51.040;3.684;2023-01-04T05:05:42;0.30;;;0.30;;
36709;SDS011;22694;51.040;3.684;2023-01-04T05:08:08;0.82;;;0.30;;
36709;SDS011;22694;51.040;3.684;2023-01-04T05:10:34;1.02;;;0.40;;
36709;SDS011;22694;51.040;3.684;2023-01-04T05:13:01;0.60;;;0.30;;
36709;SDS011;22694;51.040;3.684;2023-01-04T05:15:31;0.60;;;0.28;;
36709;SDS011;22694;51.040;3.684;2023-01-04T05:18:01;0.30;;;0.23;;
36709;SDS011;22694;51.040;3.684;2023-01-04T05:20:28;0.77;;;0.22;;
36709;SDS011;22694;51.040;3.684;2023-01-04T05:22:54;1.58;;;0.30;;
36709;SDS011;22694;51.040;3.684;2023-01-04T05:25:19;1.83;;;0.30;;
36709;SDS011;22694;51.040;3.684;2023-01-04T05:27:45;0.95;;;0.30;;
36709;SDS011;22694;51.040;3.684;2023-01-04T05:30:11;1.10;;;0.30;;
36709;SDS011;22694;51.040;3.684;2023-01-04T05:32:57;1.35;;;0.20;;
36709;SDS011;22694;51.040;3.684;2023-01-04T05:35:23;0.70;;;0.22;;
36709;SDS011;22694;51.040;3.684;2023-01-04T05:37:49;2.05;;;0.40;;
36709;SDS011;22694;51.040;3.684;2023-01-04T05:40:15;1.00;;;0.30;;
36709;SDS011;22694;51.040;3.684;2023-01-04T05:42:40;1.50;;;0.30;;
36709;SDS011;22694;51.040;3.684;2023-01-04T05:45:06;0.28;;;0.10;;
36709;SDS011;22694;51.040;3.684;2023-01-04T05:47:32;1.20;;;0.50;;
36709;SDS011;22694;51.040;3.684;2023-01-04T05:49:58;0.73;;;0.20;;
36709;SDS011;22694;51.040;3.684;2023-01-04T05:52:24;0.55;;;0.28;;
36709;SDS011;22694;51.040;3.684;2023-01-04T05:54:50;0.82;;;0.30;;
36709;SDS011;22694;51.040;3.684;2023-01-04T05:57:15;0.57;;;0.30;;
36709;SDS011;22694;51.040;3.684;2023-01-04T05:59:41;0.85;;;0.28;;
36709;SDS011;22694;51.040;3.684;2023-01-04T06:02:09;4.43;;;0.47;;
36709;SDS011;22694;51.040;3.684;2023-01-04T06:04:39;1.15;;;0.30;;
36709;SDS011;22694;51.040;3.684;2023-01-04T06:07:04;0.85;;;0.32;;
36709;SDS011;22694;51.040;3.684;2023-01-04T06:09:30;0.70;;;0.30;;
36709;SDS011;22694;51.040;3.684;2023-01-04T06:11:56;1.33;;;0.30;;
36709;SDS011;22694;51.040;3.684;2023-01-04T06:14:21;0.45;;;0.30;;
36709;SDS011;22694;51.040;3.684;2023-01-04T06:16:47;0.20;;;0.20;;
36709;SDS011;22694;51.040;3.684;2023-01-04T06:19:13;0.73;;;0.20;;
36709;SDS011;22694;51.040;3.684;2023-01-04T06:21:38;2.78;;;0.32;;
36709;SDS011;22694;51.040;3.684;2023-01-04T06:24:04;1.05;;;0.32;;
36709;SDS011;22694;51.040;3.684;2023-01-04T06:26:30;0.45;;;0.20;;
36709;SDS011;22694;51.040;3.684;2023-01-04T06:28:55;0.85;;;0.30;;
36709;SDS011;22694;51.040;3.684;2023-01-04T06:31:21;0.75;;;0.30;;
36709;SDS011;22694;51.040;3.684;2023-01-04T06:33:46;0.15;;;0.10;;
36709;SDS011;22694;51.040;3.684;2023-01-04T06:36:12;0.25;;;0.20;;
36709;SDS011;22694;51.040;3.684;2023-01-04T06:38:38;0.30;;;0.10;;
36709;SDS011;22694;51.040;3.684;2023-01-04T06:41:03;0.30;;;0.30;;
36709;SDS011;22694;51.040;3.684;2023-01-04T06:43:29;0.43;;;0.20;;
36709;SDS011;22694;51.040;3.684;2023-01-04T06:45:54;0.45;;;0.10;;
36709;SDS011;22694;51.040;3.684;2023-01-04T06:48:20;0.40;;;0.20;;
36709;SDS011;22694;51.040;3.684;2023-01-04T06:50:46;1.00;;;0.30;;
36709;SDS011;22694;51.040;3.684;2023-01-04T06:53:11;0.98;;;0.25;;
36709;SDS011;22694;51.040;3.684;2023-01-04T06:55:37;1.10;;;0.20;;
36709;SDS011;22694;51.040;3.684;2023-01-04T06:58:03;0.80;;;0.22;;
36709;SDS011;22694;51.040;3.684;2023-01-04T07:00:28;0.52;;;0.20;;
36709;SDS011;22694;51.040;3.684;2023-01-04T07:02:54;0.68;;;0.20;;
36709;SDS011;22694;51.040;3.684;2023-01-04T07:05:19;0.80;;;0.20;;
36709;SDS011;22694;51.040;3.684;2023-01-04T07:07:45;0.10;;;0.10;;
36709;SDS011;22694;51.040;3.684;2023-01-04T07:10:11;0.75;;;0.40;;
36709;SDS011;22694;51.040;3.684;2023-01-04T07:12:37;0.73;;;0.30;;
36709;SDS011;22694;51.040;3.684;2023-01-04T07:15:03;1.00;;;0.35;;
36709;SDS011;22694;51.040;3.684;2023-01-04T07:17:30;0.30;;;0.10;;
36709;SDS011;22694;51.040;3.684;2023-01-04T07:19:55;2.28;;;0.32;;
36709;SDS011;22694;51.040;3.684;2023-01-04T07:22:21;0.82;;;0.35;;
36709;SDS011;22694;51.040;3.684;2023-01-04T07:24:47;0.50;;;0.22;;
36709;SDS011;22694;51.040;3.684;2023-01-04T07:27:12;0.50;;;0.40;;
36709;SDS011;22694;51.040;3.684;2023-01-04T07:29:38;0.50;;;0.20;;
36709;SDS011;22694;51.040;3.684;2023-01-04T07:32:07;0.38;;;0.30;;
36709;SDS011;22694;51.040;3.684;2023-01-04T07:34:34;1.30;;;0.40;;
36709;SDS011;22694;51.040;3.684;2023-01-04T07:37:01;0.98;;;0.30;;
36709;SDS011;22694;51.040;3.684;2023-01-04T07:39:27;1.20;;;0.28;;
36709;SDS011;22694;51.040;3.684;2023-01-04T07:41:53;0.85;;;0.20;;
36709;SDS011;22694;51.040;3.684;2023-01-04T07:44:19;0.82;;;0.20;;
36709;SDS011;22694;51.040;3.684;2023-01-04T07:46:45;0.70;;;0.22;;
36709;SDS011;22694;51.040;3.684;2023-01-04T07:49:12;1.25;;;0.50;;
36709;SDS011;22694;51.040;3.684;2023-01-04T07:51:40;0.63;;;0.20;;
36709;SDS011;22694;51.040;3.684;2023-01-04T07:54:05;1.83;;;0.45;;
36709;SDS011;22694;51.040;3.684;2023-01-04T07:56:31;4.35;;;0.50;;
36709;SDS011;22694;51.040;3.684;2023-01-04T07:58:57;0.93;;;0.30;;
36709;SDS011;22694;51.040;3.684;2023-01-04T08:01:23;1.38;;;0.40;;
36709;SDS011;22694;51.040;3.684;2023-01-04T08:03:50;3.47;;;0.98;;
36709;SDS011;22694;51.040;3.684;2023-01-04T08:06:16;2.47;;;0.50;;
36709;SDS011;22694;51.040;3.684;2023-01-04T08:08:43;2.03;;;0.45;;
36709;SDS011;22694;51.040;3.684;2023-01-04T08:11:10;1.55;;;0.47;;
36709;SDS011;22694;51.040;3.684;2023-01-04T08:13:38;1.55;;;0.52;;
36709;SDS011;22694;51.040;3.684;2023-01-04T08:16:04;3.22;;;0.47;;
36709;SDS011;22694;51.040;3.684;2023-01-04T08:18:30;3.65;;;0.47;;
36709;SDS011;22694;51.040;3.684;2023-01-04T08:23:29;4.75;;;1.05;;
36709;SDS011;22694;51.040;3.684;2023-01-04T08:25:55;16.23;;;3.63;;
36709;SDS011;22694;51.040;3.684;2023-01-04T08:28:25;27.25;;;4.65;;
36709;SDS011;22694;51.040;3.684;2023-01-04T08:30:50;13.43;;;3.85;;
36709;SDS011;22694;51.040;3.684;2023-01-04T08:33:16;13.45;;;3.72;;
36709;SDS011;22694;51.040;3.684;2023-01-04T08:35:42;11.88;;;3.03;;
36709;SDS011;22694;51.040;3.684;2023-01-04T08:38:07;9.15;;;2.85;;
36709;SDS011;22694;51.040;3.684;2023-01-04T08:40:33;10.68;;;3.00;;
36709;SDS011;22694;51.040;3.684;2023-01-04T08:42:58;6.05;;;2.20;;
36709;SDS011;22694;51.040;3.684;2023-01-04T08:45:24;9.38;;;2.35;;
36709;SDS011;22694;51.040;3.684;2023-01-04T08:47:50;7.05;;;1.80;;
36709;SDS011;22694;51.040;3.684;2023-01-04T08:50:15;7.30;;;2.35;;
36709;SDS011;22694;51.040;3.684;2023-01-04T08:52:43;4.88;;;1.63;;
36709;SDS011;22694;51.040;3.684;2023-01-04T08:55:08;8.57;;;2.25;;
36709;SDS011;22694;51.040;3.684;2023-01-04T08:57:34;6.13;;;1.60;;
36709;SDS011;22694;51.040;3.684;2023-01-04T09:00:00;7.88;;;2.22;;
36709;SDS011;22694;51.040;3.684;2023-01-04T09:02:26;6.97;;;2.58;;
36709;SDS011;22694;51.040;3.684;2023-01-04T09:04:52;7.80;;;2.25;;
36709;SDS011;22694;51.040;3.684;2023-01-04T09:07:23;8.10;;;2.40;;
36709;SDS011;22694;51.040;3.684;2023-01-04T09:09:55;7.38;;;1.63;;
36709;SDS011;22694;51.040;3.684;2023-01-04T09:12:21;7.25;;;1.90;;
36709;SDS011;22694;51.040;3.684;2023-01-04T09:14:47;4.97;;;1.50;;
36709;SDS011;22694;51.040;3.684;2023-01-04T09:17:13;3.65;;;1.30;;
36709;SDS011;22694;51.040;3.684;2023-01-04T09:19:39;6.32;;;1.60;;
36709;SDS011;22694;51.040;3.684;2023-01-04T09:22:05;3.78;;;1.65;;
36709;SDS011;22694;51.040;3.684;2023-01-04T09:24:33;7.95;;;1.80;;
36709;SDS011;22694;51.040;3.684;2023-01-04T09:26:59;4.55;;;1.45;;
36709;SDS011;22694;51.040;3.684;2023-01-04T09:29:25;3.65;;;1.50;;
36709;SDS011;22694;51.040;3.684;2023-01-04T09:31:51;2.85;;;1.10;;
36709;SDS011;22694;51.040;3.684;2023-01-04T09:34:18;3.72;;;1.60;;
36709;SDS011;22694;51.040;3.684;2023-01-04T09:36:44;4.40;;;1.67;;
36709;SDS011;22694;51.040;3.684;2023-01-04T09:39:12;3.83;;;1.40;;
36709;SDS011;22694;51.040;3.684;2023-01-04T09:41:42;2.80;;;1.20;;
36709;SDS011;22694;51.040;3.684;2023-01-04T09:44:17;5.53;;;1.35;;
36709;SDS011;22694;51.040;3.684;2023-01-04T09:46:59;4.03;;;1.40;;
36709;SDS011;22694;51.040;3.684;2023-01-04T09:49:43;4.57;;;1.30;;
36709;SDS011;22694;51.040;3.684;2023-01-04T09:52:23;4.25;;;1.33;;
36709;SDS011;22694;51.040;3.684;2023-01-04T09:55:17;2.33;;;0.90;;
36709;SDS011;22694;51.040;3.684;2023-01-04T09:57:48;3.53;;;1.10;;
36709;SDS011;22694;51.040;3.684;2023-01-04T10:00:22;3.28;;;1.13;;
36709;SDS011;22694;51.040;3.684;2023-01-04T10:02:55;5.18;;;1.48;;
36709;SDS011;22694;51.040;3.684;2023-01-04T10:05:26;2.45;;;1.10;;
36709;SDS011;22694;51.040;3.684;2023-01-04T10:07:55;3.17;;;1.48;;
36709;SDS011;22694;51.040;3.684;2023-01-04T10:10:33;4.28;;;0.82;;
36709;SDS011;22694;51.040;3.684;2023-01-04T10:23:51;1.67;;;0.77;;
36709;SDS011;22694;51.040;3.684;2023-01-04T10:31:30;2.55;;;0.73;;
36709;SDS011;22694;51.040;3.684;2023-01-04T10:34:15;2.70;;;0.63;;
36709;SDS011;22694;51.040;3.684;2023-01-04T10:36:48;3.33;;;0.88;;
36709;SDS011;22694;51.040;3.684;2023-01-04T10:39:18;1.58;;;0.85;;
36709;SDS011;22694;51.040;3.684;2023-01-04T10:41:52;1.13;;;0.70;;
36709;SDS011;22694;51.040;3.684;2023-01-04T10:44:41;2.38;;;0.80;;
36709;SDS011;22694;51.040;3.684;2023-01-04T10:47:09;2.25;;;0.77;;
36709;SDS011;22694;51.040;3.684;2023-01-04T10:49:45;1.40;;;0.60;;
36709;SDS011;22694;51.040;3.684;2023-01-04T10:52:19;1.20;;;0.68;;
36709;SDS011;22694;51.040;3.684;2023-01-04T11:00:12;1.83;;;0.47;;
36709;SDS011;22694;51.040;3.684;2023-01-04T11:02:44;2.38;;;0.70;;
36709;SDS011;22694;51.040;3.684;2023-01-04T11:07:51;3.55;;;0.77;;
36709;SDS011;22694;51.040;3.684;2023-01-04T11:12:51;0.65;;;0.50;;
36709;SDS011;22694;51.040;3.684;2023-01-04T11:15:16;2.05;;;0.60;;
36709;SDS011;22694;51.040;3.684;2023-01-04T11:17:42;0.90;;;0.50;;
36709;SDS011;22694;51.040;3.684;2023-01-04T11:20:09;2.97;;;0.52;;
36709;SDS011;22694;51.040;3.684;2023-01-04T11:22:38;1.98;;;0.68;;
36709;SDS011;22694;51.040;3.684;2023-01-04T11:25:18;4.22;;;1.10;;
36709;SDS011;22694;51.040;3.684;2023-01-04T11:28:00;1.15;;;0.60;;
36709;SDS011;22694;51.040;3.684;2023-01-04T11:30:37;1.35;;;0.52;;
36709;SDS011;22694;51.040;3.684;2023-01-04T11:33:12;1.80;;;0.55;;
36709;SDS011;22694;51.040;3.684;2023-01-04T11:35:42;1.85;;;0.68;;
36709;SDS011;22694;51.040;3.684;2023-01-04T11:38:13;1.75;;;0.80;;
36709;SDS011;22694;51.040;3.684;2023-01-04T11:40:52;1.27;;;0.43;;
36709;SDS011;22694;51.040;3.684;2023-01-04T11:43:23;0.75;;;0.38;;
36709;SDS011;22694;51.040;3.684;2023-01-04T11:46:01;1.73;;;0.57;;
36709;SDS011;22694;51.040;3.684;2023-01-04T11:48:40;1.42;;;0.50;;
36709;SDS011;22694;51.040;3.684;2023-01-04T11:51:17;1.50;;;0.55;;
36709;SDS011;22694;51.040;3.684;2023-01-04T11:56:55;0.80;;;0.30;;
36709;SDS011;22694;51.040;3.684;2023-01-04T11:59:25;0.95;;;0.50;;
36709;SDS011;22694;51.040;3.684;2023-01-04T12:02:09;0.65;;;0.40;;
36709;SDS011;22694;51.040;3.684;2023-01-04T12:04:47;1.15;;;0.20;;
36709;SDS011;22694;51.040;3.684;2023-01-04T12:07:33;1.65;;;0.65;;
36709;SDS011;22694;51.040;3.684;2023-01-04T12:10:00;1.45;;;0.90;;
36709;SDS011;22694;51.040;3.684;2023-01-04T12:12:36;0.47;;;0.30;;
36709;SDS011;22694;51.040;3.684;2023-01-04T12:15:04;2.05;;;0.55;;
36709;SDS011;22694;51.040;3.684;2023-01-04T12:20:26;3.35;;;0.68;;
36709;SDS011;22694;51.040;3.684;2023-01-04T12:22:53;1.02;;;0.60;;
36709;SDS011;22694;51.040;3.684;2023-01-04T12:25:38;0.93;;;0.47;;
36709;SDS011;22694;51.040;3.684;2023-01-04T12:30:53;0.80;;;0.50;;
36709;SDS011;22694;51.040;3.684;2023-01-04T12:36:00;1.50;;;0.82;;
36709;SDS011;22694;51.040;3.684;2023-01-04T12:39:16;0.63;;;0.40;;
36709;SDS011;22694;51.040;3.684;2023-01-04T12:41:16;0.93;;;0.50;;
36709;SDS011;22694;51.040;3.684;2023-01-04T12:43:42;1.50;;;0.50;;
36709;SDS011;22694;51.040;3.684;2023-01-04T13:00:08;1.05;;;0.50;;
36709;SDS011;22694;51.040;3.684;2023-01-04T13:10:27;1.08;;;0.47;;
36709;SDS011;22694;51.040;3.684;2023-01-04T13:15:53;0.65;;;0.30;;
36709;SDS011;22694;51.040;3.684;2023-01-04T13:18:38;1.77;;;0.40;;
36709;SDS011;22694;51.040;3.684;2023-01-04T13:23:47;1.15;;;0.70;;
36709;SDS011;22694;51.040;3.684;2023-01-04T13:26:38;2.05;;;0.57;;
36709;SDS011;22694;51.040;3.684;2023-01-04T13:29:26;1.33;;;0.52;;
36709;SDS011;22694;51.040;3.684;2023-01-04T13:31:57;1.50;;;0.50;;
36709;SDS011;22694;51.040;3.684;2023-01-04T13:39:38;1.75;;;0.45;;
36709;SDS011;22694;51.040;3.684;2023-01-04T13:42:17;1.17;;;0.63;;
36709;SDS011;22694;51.040;3.684;2023-01-04T13:45:00;3.55;;;1.27;;
36709;SDS011;22694;51.040;3.684;2023-01-04T13:47:33;2.25;;;0.70;;
36709;SDS011;22694;51.040;3.684;2023-01-04T13:50:02;1.83;;;0.55;;
36709;SDS011;22694;51.040;3.684;2023-01-04T13:52:28;2.55;;;0.60;;
36709;SDS011;22694;51.040;3.684;2023-01-04T13:57:56;1.95;;;0.75;;
36709;SDS011;22694;51.040;3.684;2023-01-04T14:00:24;1.20;;;0.50;;
36709;SDS011;22694;51.040;3.684;2023-01-04T14:05:50;2.05;;;0.70;;
36709;SDS011;22694;51.040;3.684;2023-01-04T14:10:58;1.58;;;0.80;;
36709;SDS011;22694;51.040;3.684;2023-01-04T14:13:24;2.17;;;1.10;;
36709;SDS011;22694;51.040;3.684;2023-01-04T14:16:09;1.02;;;0.50;;
36709;SDS011;22694;51.040;3.684;2023-01-04T14:18:37;2.83;;;0.98;;
36709;SDS011;22694;51.040;3.684;2023-01-04T14:21:03;1.88;;;0.60;;
36709;SDS011;22694;51.040;3.684;2023-01-04T14:23:38;1.95;;;0.82;;
36709;SDS011;22694;51.040;3.684;2023-01-04T14:26:03;2.28;;;0.70;;
36709;SDS011;22694;51.040;3.684;2023-01-04T14:28:33;1.95;;;0.50;;
36709;SDS011;22694;51.040;3.684;2023-01-04T14:38:34;1.52;;;0.47;;
36709;SDS011;22694;51.040;3.684;2023-01-04T14:43:47;1.27;;;0.95;;
36709;SDS011;22694;51.040;3.684;2023-01-04T14:46:17;1.17;;;0.45;;
36709;SDS011;22694;51.040;3.684;2023-01-04T14:48:43;1.20;;;0.50;;
36709;SDS011;22694;51.040;3.684;2023-01-04T14:51:09;2.17;;;0.55;;
36709;SDS011;22694;51.040;3.684;2023-01-04T14:53:41;1.45;;;0.57;;
36709;SDS011;22694;51.040;3.684;2023-01-04T14:56:14;1.33;;;0.60;;
36709;SDS011;22694;51.040;3.684;2023-01-04T14:58:42;1.58;;;0.55;;
36709;SDS011;22694;51.040;3.684;2023-01-04T15:01:08;1.77;;;0.90;;
36709;SDS011;22694;51.040;3.684;2023-01-04T15:03:35;1.30;;;0.45;;
36709;SDS011;22694;51.040;3.684;2023-01-04T15:06:01;1.80;;;0.40;;
36709;SDS011;22694;51.040;3.684;2023-01-04T15:08:26;1.15;;;0.40;;
36709;SDS011;22694;51.040;3.684;2023-01-04T15:10:52;1.52;;;0.63;;
36709;SDS011;22694;51.040;3.684;2023-01-04T15:13:18;1.98;;;0.55;;
36709;SDS011;22694;51.040;3.684;2023-01-04T15:15:43;0.93;;;0.50;;
36709;SDS011;22694;51.040;3.684;2023-01-04T15:18:09;1.40;;;0.60;;
36709;SDS011;22694;51.040;3.684;2023-01-04T15:20:37;1.13;;;0.57;;
36709;SDS011;22694;51.040;3.684;2023-01-04T15:23:03;2.25;;;0.80;;
36709;SDS011;22694;51.040;3.684;2023-01-04T15:25:29;1.80;;;0.65;;
36709;SDS011;22694;51.040;3.684;2023-01-04T15:27:55;3.83;;;1.13;;
36709;SDS011;22694;51.040;3.684;2023-01-04T15:30:21;4.63;;;1.02;;
36709;SDS011;22694;51.040;3.684;2023-01-04T15:32:46;2.92;;;0.93;;
36709;SDS011;22694;51.040;3.684;2023-01-04T15:35:12;3.55;;;1.25;;
36709;SDS011;22694;51.040;3.684;2023-01-04T15:37:41;4.15;;;1.10;;
36709;SDS011;22694;51.040;3.684;2023-01-04T15:40:10;4.45;;;1.42;;
36709;SDS011;22694;51.040;3.684;2023-01-04T15:42:40;4.45;;;1.20;;
36709;SDS011;22694;51.040;3.684;2023-01-04T15:45:33;4.03;;;1.17;;
36709;SDS011;22694;51.040;3.684;2023-01-04T15:48:03;6.38;;;1.25;;
36709;SDS011;22694;51.040;3.684;2023-01-04T15:50:33;3.30;;;1.20;;
36709;SDS011;22694;51.040;3.684;2023-01-04T15:53:00;3.92;;;1.10;;
36709;SDS011;22694;51.040;3.684;2023-01-04T15:55:28;3.13;;;0.90;;
36709;SDS011;22694;51.040;3.684;2023-01-04T15:57:54;2.13;;;0.80;;
36709;SDS011;22694;51.040;3.684;2023-01-04T16:00:20;1.95;;;0.95;;
36709;SDS011;22694;51.040;3.684;2023-01-04T16:02:46;3.30;;;1.25;;
36709;SDS011;22694;51.040;3.684;2023-01-04T16:05:11;3.00;;;1.02;;
36709;SDS011;22694;51.040;3.684;2023-01-04T16:07:37;2.80;;;1.13;;
36709;SDS011;22694;51.040;3.684;2023-01-04T16:10:03;5.47;;;1.20;;
36709;SDS011;22694;51.040;3.684;2023-01-04T16:12:29;3.55;;;0.90;;
36709;SDS011;22694;51.040;3.684;2023-01-04T16:15:15;3.63;;;1.15;;
36709;SDS011;22694;51.040;3.684;2023-01-04T16:17:42;5.28;;;2.00;;
36709;SDS011;22694;51.040;3.684;2023-01-04T16:20:09;6.00;;;1.50;;
36709;SDS011;22694;51.040;3.684;2023-01-04T16:22:37;4.25;;;1.35;;
36709;SDS011;22694;51.040;3.684;2023-01-04T16:25:03;3.83;;;1.20;;
36709;SDS011;22694;51.040;3.684;2023-01-04T16:27:30;6.35;;;1.60;;
36709;SDS011;22694;51.040;3.684;2023-01-04T16:29:57;5.05;;;1.55;;
36709;SDS011;22694;51.040;3.684;2023-01-04T16:32:23;5.13;;;1.42;;
36709;SDS011;22694;51.040;3.684;2023-01-04T16:34:49;4.78;;;1.65;;
36709;SDS011;22694;51.040;3.684;2023-01-04T16:37:15;8.00;;;1.77;;
36709;SDS011;22694;51.040;3.684;2023-01-04T16:39:41;8.88;;;2.10;;
36709;SDS011;22694;51.040;3.684;2023-01-04T16:42:06;5.32;;;1.45;;
36709;SDS011;22694;51.040;3.684;2023-01-04T16:44:32;7.00;;;1.70;;
36709;SDS011;22694;51.040;3.684;2023-01-04T16:46:58;4.03;;;1.33;;
36709;SDS011;22694;51.040;3.684;2023-01-04T16:49:23;6.30;;;1.80;;
36709;SDS011;22694;51.040;3.684;2023-01-04T16:51:49;6.32;;;1.95;;
36709;SDS011;22694;51.040;3.684;2023-01-04T16:54:16;6.85;;;1.98;;
36709;SDS011;22694;51.040;3.684;2023-01-04T16:56:43;6.20;;;1.75;;
36709;SDS011;22694;51.040;3.684;2023-01-04T16:59:10;6.53;;;1.73;;
36709;SDS011;22694;51.040;3.684;2023-01-04T17:01:38;4.03;;;1.90;;
36709;SDS011;22694;51.040;3.684;2023-01-04T17:04:04;6.75;;;2.17;;
36709;SDS011;22694;51.040;3.684;2023-01-04T17:06:34;6.20;;;1.92;;
36709;SDS011;22694;51.040;3.684;2023-01-04T17:09:02;5.50;;;2.45;;
36709;SDS011;22694;51.040;3.684;2023-01-04T17:11:28;7.07;;;2.28;;
36709;SDS011;22694;51.040;3.684;2023-01-04T17:13:55;4.93;;;1.50;;
36709;SDS011;22694;51.040;3.684;2023-01-04T17:16:21;4.22;;;1.67;;
36709;SDS011;22694;51.040;3.684;2023-01-04T17:18:48;6.05;;;2.00;;
36709;SDS011;22694;51.040;3.684;2023-01-04T17:21:15;6.28;;;1.95;;
36709;SDS011;22694;51.040;3.684;2023-01-04T17:23:44;5.90;;;2.30;;